VLEZENBEEK: – Vandaag Pinksteren en vaderdag werd in Vlezenbeek onder een loden zon de 32 ste aardbeienjogging gelopen op het heuvelachtige parcours in Vlezenbeek centrum.
2014-06-08-aardbeienjogging (32)
Bij 29°C gingen meer dan 500 joggers van start voor de 7, 14 en 21 km. Onnodig te vertellen dat er onderweg heel wat water werd gedronken, veel gezucht werd, zware inspanningen geleverd werden,… Verscheidene deelnemers lieten ons weten dat het echt wel zwaar was bij deze temperaturen in de blakende zon. Sommigen hadden dan ook in laatste instantie gekozen voor de 14km ipv de 21km.
2014-06-08-aardbeienjogging (95)
Blij waren vele deelnemers ook met de verfrissende douche die mensen die langs het parcours wonen hen aanboden met de tuinslang.

Deze diashow vereist JavaScript.


Proficiat ook aan alle moedige jeugdige lopers in de respectievelijk -9 en -12 jaar reeksen die meededen aan hun mini-aardbeienjogging.
Beloond werd iedereen na de aankomst met een bakje verse aardbeien geschonken door de boerenmarkt van Gaasbeek.

Wil u nog meer foto’s zien? Bekijk dan ons facebook album met 120 foto’s van de aardbeienjogging.

top 3 aardbeienjogging 21 km:
1) Mosselmans Sven – 1:19:06 – 15,9 km/u
2) De Pauw Gerrit – 1:19:18 – 15,8 km/u
3) Van der Kelen Tom – 1:21:32 – 15,4 km/u
top 3 aardbeienjogging 14 km:
1) Zeragerras Youssef – 0:54:49:15 – 15,3 km/u
2) Pierreux Gerrit – 0:56:22 14,9 km/u
3) Michiels Ronny – 0:56:26 – 14,8km/u
top 3 aardbeienjogging 7 km:
1) Dael Christophe – 0:23:30 – 17.8 km/u
2) Stiens Roel – 0:23:57 – 17.5 km/u
3) Van De Velde Wouter – 0:25:04 – 16.7 km/u
Kinderen:
1ste op halve km – 9 (V) Lena Serré en (M) Joren Dydden
1ste op hele km – 12 (V) Lore Langendijk en (M) Brian Rogiers

Nr. Naam Kategorie Tijd Gemiddelde Postcode Club
1 814 Mosselmans Sven MV1 1:19:06 15.9 km/u 1740
2 805 De Pauw Gerrit MSEN 1:19:18 15.8 km/u 3080
3 824 Van der Kelen Tom MSEN 1:21:32 15.4 km/u 1755
4 812 Pandelaere Johnny MV3 1:24:40 14.8 km/u 1750
5 821 Van Butsele B MV2 1:25:49 14.6 km/u 1500 OEH
6 817 Leo Marc MV1 1:26:48 14.4 km/u 1703 Leeuwerik
7 813 van Humbeek Gunther MV1 1:28:10 14.2 km/u 1800
8 827 Hollemans Elliot MSEN 1:31:55 13.7 km/u 1600
9 993 Louckx Bart MSEN 1:32:34 13.6 km/u 1600 Leeuwerik
10 830 Feyen Tom MV1 1:32:40 13.5 km/u 1600
11 801 Sampermans Bart MSEN 1:32:59 13.5 km/u 3550 DCLA Halen
12 811 Barbe Jan MV1 1:35:16 13.2 km/u 1501
13 828 Carels Peter MSEN 1:39:30 12.6 km/u 1540
14 991 Louckx Peter MV2 1:39:52 12.6 km/u 1600 Leeuwerik
15 831 Ghijselings Daan MSEN 1:41:14 12.4 km/u 1701
16 833 Ghijselings Leopold MV2 1:42:09 12.3 km/u 1000
17 832 Ghijselings Xavier MV2 1:42:43 12.2 km/u 1701
18 992 Fausta Palombelli VSEN 1:44:49 12.0 km/u 1180 Berlinus
19 802 Franck Peter MV1 1:45:38 11.9 km/u 2845
20 995 Polaster Guido MV2 1:46:41 11.8 km/u 1702 DAC
21 818 Cautaers Luc MV2 1:47:26 11.7 km/u 1750 KWB Wambeek
22 819 Puttaert Gunter MV1 1:47:34 11.7 km/u 1750 KWB Wambeek
23 807 Brandier Jean-Yves MV3 1:50:56 11.3 km/u
24 808 Verminst Eric MV3 1:50:59 11.3 km/u
25 815 Molenschot Brecht MSEN 1:53:36 11.0 km/u 1602
26 829 Meert Geert MV1 1:54:07 11.0 km/u 1602
27 800 Van Dorsselaer Geert MV1 2:01:57 10.3 km/u 1602 Landelijke Gilde Vlezenbeek
28 825 Cooreman Isabelle VSEN 2:03:23 10.2 km/u 1702
29 823 Ameys Patrick MV2 2:04:42 10.1 km/u 1600
30 826 Moeneclaey Jean-Phi MSEN 2:08:33 9.80 km/u 1702
31 822 Verwee Bernard MV1 2:10:31 9.65 km/u 1070
32 997 Van den Kerkhove Saskia VV1 2:12:16 9.52 km/u 1602 Berlinus
33 996 Donneaux Marie-Noëlle VSEN 2:18:51 9.07 km/u 1190

Nr. Naam Kategorie Tijd Gemiddelde Postcode Club
1 518 Zeragerras Youssef MSEN 0:54:49 15.3 km/u 1150 Fedasil
2 578 Pierreux Gerrit 0:56:22 14.9 km/u 1673 BAV
3 520 Michiels Ronny MV1 0:56:26 14.8 km/u 1570 JC Oetingen
4 543 Vanden Driesch Nancy VSEN 0:56:36 14.8 km/u 1600
5 529 Van Den Driessche Hendrik MSEN 0:57:48 14.5 km/u 1600
6 794 Duvivier Gregory MSEN 0:57:53 14.5 km/u 9890
7 555 De Buel Rutger MSEN 1:00:02 13.9 km/u 1600
8 567 Hollemans Marc MV2 1:00:25 13.9 km/u 1600 Leeuwerik
9 579 Valentyn Michel MV1 1:00:43 13.8 km/u 1700 DAC
10 517 Verbrugghen Willy MV3 1:00:58 13.7 km/u 1730 Leeuwerik
11 515 Basteleus Erik MV1 1:01:32 13.6 km/u 1570
12 541 Van Der Vennet Lode MV3 1:01:56 13.5 km/u 1652
13 532 Vande Velde Gerd MSEN 1:03:23 13.2 km/u 1502 ITM
14 568 Dejonghe Timothy MSEN 1:04:25 13.0 km/u 1600
15 787 Van Haevere danny MV1 1:05:23 12.8 km/u 9100 acw
16 525 Brichau Bruno MV1 1:06:04 12.7 km/u 1500
17 572 Vanhuffel Sebastien MSEN 1:06:09 12.6 km/u 2861
18 546 Goubert Niki MSEN 1:06:22 12.6 km/u 1600
19 569 Gettemans Bram MSEN 1:06:45 12.5 km/u 1590
20 577 Viville Marc MV3 1:06:48 12.5 km/u 9000
21 514 Bruier Desmeth Randy MSEN 1:06:52 12.5 km/u 9400 Leeuwerik
22 512 Goyo Zvazu MSEN 1:07:25 12.4 km/u
23 564 Knop Seppe MJUN 1:07:47 12.3 km/u 1500
24 540 De La Kethulle Jose MV1 1:07:58 12.3 km/u 7861
25 788 Van Haevere Franky MV1 1:08:01 12.3 km/u 9100
26 530 Nerinckx Patrick MV1 1:08:10 12.3 km/u 1500 OEH
27 796 Eylenbosch Kjell MSEN 1:08:20 12.2 km/u 1600
28 550 Janssens Wim MSEN 1:08:23 12.2 km/u 1740
29 531 Vande Velde Walter MV2 1:09:01 12.1 km/u 1500 ITM
30 510 Dewandeleer Bart MSEN 1:09:31 12.0 km/u 1800 KWB Jogging Wambeek
31 519 Van Der Sype Kris MSEN 1:10:03 11.9 km/u 9660
32 523 Speliers Mike MSEN 1:10:33 11.9 km/u 1500
33 563 Knops Geert MV1 1:10:40 11.8 km/u 1500
34 574 Appelmans Matthias MSEN 1:11:05 11.8 km/u 1602
35 566 Glorieux Gert MV1 1:11:28 11.7 km/u 1502
36 551 Kerckhoven Danny MV1 1:11:44 11.7 km/u 1755
37 547 Berghmans Maarten MSEN 1:11:52 11.6 km/u 1652
38 798 Dielen Chris MV1 1:11:58 11.6 km/u 2950 AC KAPE KAPELLEN
39 561 Van San Patrick MV1 1:13:19 11.4 km/u 7850
40 535 Tourwe Tom MSEN 1:14:12 11.3 km/u 1700 DAL
41 507 Barek Marc MV2 1:14:50 11.2 km/u 1080
42 506 Bakali Ahmed MV1 1:14:53 11.2 km/u 1070
43 537 De vos Walter MV2 1:15:40 11.1 km/u 1740 run4fun
44 521 Lemmens Marc MV2 1:15:53 11.0 km/u 7861
45 576 Spittaels Lotte VSEN 1:16:13 11.0 km/u 1750
46 785 Van Den Eynde Lies VSEN 1:16:27 10.9 km/u 1740 Run4Fun Ternat
47 789 Vander Motten Edwin MV3 1:17:18 10.8 km/u 1602 Leeuwerik
48 782 HEYVAERT LUC MV2 1:17:23 10.8 km/u 1653 LEEUWERIK
49 783 Cassenaer Geoffrey MSEN 1:17:48 10.7 km/u 1730
50 516 Longin Dirk MV1 1:17:57 10.7 km/u 1602
51 571 Goossens Peter MV1 1:19:00 10.6 km/u 1602
52 781 VERSTRAETE FRANCE VV1 1:19:37 10.5 km/u 1070
53 799 Lemaire Steve MSEN 1:19:39 10.5 km/u 1674
54 533 Heyers Kasper MSEN 1:19:49 10.5 km/u 1702
55 562 Vanden Eede Catherine VV1 1:20:13 10.4 km/u 1651
56 511 Swalens Kurt MV1 1:20:22 10.4 km/u 1501
57 513 Deleener Chris MV2 1:22:11 10.2 km/u 1501
58 560 Der Keyser Gust MV3 1:22:24 10.1 km/u 1602
59 528 Magnus Dirk MV1 1:22:28 10.1 km/u 1600
60 559 De Keyser Lies VSEN 1:22:33 10.1 km/u 1500
61 500 Van Dorsselaer Thomas MMIN 1:25:04 9.87 km/u 1602 Landelijke Gilde Vlezenbeek
62 557 Dierkens Flup MV2 1:25:34 9.81 km/u 1600
63 575 Houthuys Marieke VSEN 1:26:43 9.68 km/u 1755
64 536 Lienard Kevin MSEN 1:27:13 9.63 km/u 1701
65 503 Seeldrayers Hans MSEN 1:27:19 9.62 km/u 1602 Patriot
66 534 Lienard Chris MSEN 1:27:38 9.58 km/u 1701
67 558 Decroos Goedele VV2 1:27:50 9.56 km/u 1600
68 791 Wyrwal Sascha MV1 1:27:53 9.55 km/u 1602
69 545 Bredoux Nick MSEN 1:28:43 9.46 km/u 1601
70 522 Braem Sabrina VV1 1:29:46 9.35 km/u 1800
71 501 Dumont Jean-Philippe MV1 1:30:49 9.24 km/u 1703
72 526 Van Campenhout Ronald MV1 1:34:02 8.93 km/u 1860
73 502 Lens Stefan MSEN 1:34:13 8.91 km/u 1600
74 524 Noe Luc MV2 1:34:47 8.86 km/u 1600
75 508 Van Hoye Ann VSEN 1:35:20 8.81 km/u 1602 Patrijot
76 504 Sebreghts Katrien VV1 1:35:23 8.80 km/u 1602
77 505 Sempels Bart MV1 1:35:27 8.80 km/u 1602
78 573 Sleeckx Sophie VSEN 1:48:59 7.70 km/u 2861

Ranking Nr. Naam Kategorie Tijd Gemiddelde Postcode Club
1 434 Dael Christophe MSEN 0:23:30 17.8 km/u 1602 Acp
2 9 Stiens Roel MSEN 0:23:57 17.5 km/u 1602 Olympic Running Team
3 144 Van De Velde Wouter MSEN 0:25:04 16.7 km/u 1600 H3O
4 123 Vanvooren Maxim MSEN 0:25:13 16.6 km/u 1760
5 157 Blaton Wim MSEN 0:25:34 16.4 km/u 9500 Bioargrico Duatlon
6 433 Van den Driessche Melissa VSEN 0:25:44 16.3 km/u 1602 Acp
7 450 De Bosscher Stijn MSEN 0:25:54 16.2 km/u 1600 Leeuwerik
8 145 Loux Patrick MV1 0:25:55 16.2 km/u 9470 Spiridou Aalst
9 99 De Knijf Kevin MKAD 0:26:16 15.9 km/u 1755 ACP
10 126 Delplace Alain MV1 0:26:19 15.9 km/u 1600 Dossche Nills
11 25 Daeseleire Dimitri MSEN 0:26:23 15.9 km/u 1602
12 74 Crabbe Kevin MSEN 0:27:53 15.0 km/u 1750 ACP
13 18 Den Houdijker David MSEN 0:27:55 15.0 km/u 1500 joggers Beersel
14 449 Van Driessche Denis MSEN 0:27:57 15.0 km/u 1602 AG
15 80 Mezara Mazi VSEN 0:28:06 14.9 km/u – Fedasil
16 5 Louvrier Pierre MV2 0:28:12 14.9 km/u 7011
17 13 Vancluysen Remi MSEN 0:28:20 14.8 km/u 1400
18 79 Vanhessen Kiefer MSEN 0:28:31 14.7 km/u 1653 Leeuwerik
19 115 Desmeth Sven MSEN 0:28:43 14.6 km/u 1600
20 73 Mollaert Dirk MSEN 0:29:40 14.1 km/u 1070 Leeuwerik
21 161 Fleurus Yens MMIN 0:29:49 14.1 km/u 9506 DAC
22 131 Haegeman Davy MSEN 0:29:53 14.1 km/u 1770 ACP
23 455 genin benoit MV1 0:29:58 14.0 km/u 1070 fedasil
24 64 Bagayoko Issa MSEN 0:30:04 14.0 km/u 1150 Fedasil
25 54 Deceuster Jeremy MSEN 0:30:10 13.9 km/u 1602
26 90 Landerloo Stephane MSEN 0:30:26 13.8 km/u 1600 SK Leeuw
27 165 De Klerck Hubert MV3 0:30:36 13.7 km/u 1750 KWB Wambeek
28 109 Cruyskens Ludo MV1 0:30:41 13.7 km/u 1701
29 117 De Geyter Tim MSEN 0:30:44 13.7 km/u 1600
30 432 Braes Branko MSEN 0:30:51 13.6 km/u 1502
31 66 Ibrahima Camara MSEN 0:30:53 13.6 km/u 1150 Fedasil
32 36 Vanreepinghen Nancy VV1 0:31:02 13.5 km/u 1755
33 147 Cordero Anthony MSEN 0:31:04 13.5 km/u 1502 OEH
34 77 Malschaert Maxim MMIN 0:31:06 13.5 km/u 1700
35 68 Genin Jean-Michel MJUN 0:31:23 13.4 km/u 1083 Fedasil
36 94 Swennen Rohnny MV1 0:31:27 13.4 km/u 1701
37 186 Christiaens Kenny MSEN 0:31:33 13.3 km/u 1755 Jupi-Joggers
38 110 Agneessens Marc MSEN 0:31:37 13.3 km/u 1750 Leeuwerik
39 458 Goetvinck Jonathan MSEN 0:31:42 13.2 km/u 1740 SANO Personal Training
40 78 Coppens Fanny VSEN 0:31:44 13.2 km/u 1750 JC Oetingen
41 151 Van Campenhout Rudi MV2 0:31:51 13.2 km/u 1600 Leeuwerik
42 65 Ashurov Isakandar MSEN 0:31:54 13.2 km/u 1150 Fedasil
43 127 Bruier de Smeth Fred MSEN 0:32:01 13.1 km/u 1755
44 130 Van Bellinghen Jeno MSEN 0:32:04 13.1 km/u 1600 Depot
45 142 Vermoesen Kris MSEN 0:32:08 13.1 km/u 1070 DAC Dilbeek
46 189 Van Vaerenbergh Frederik MSEN 0:32:14 13.0 km/u 1741 Jupi-Joggers
47 120 Carton Fran VSEN 0:32:18 13.0 km/u 1750
48 416 Lombaert Johan MV1 0:32:28 12.9 km/u 1703 Leeuwerik
49 447 Van Heffen Els VV1 0:32:34 12.9 km/u 1600 Leeuwerik
50 71 Denayer Rune M-12 0:32:43 12.8 km/u 1600
51 462 Vincke Sven MJUN 0:32:49 12.8 km/u 1600
52 11 Loures Michaël MSEN 0:32:56 12.8 km/u 9280 Sano Personal Training
53 33 Gyselbrecht David MSEN 0:33:04 12.7 km/u 1540
54 67 Bluck Gregory MV1 0:33:10 12.7 km/u 1150 Fedasil
55 83 Van Humbeeck Seph M-12 0:33:23 12.5 km/u 1800 Patrijot
56 474 Vander Straeten Koen MSEN 0:33:26 12.5 km/u 1602
57 50 Van Laathem Wilfried MV1 0:33:28 12.5 km/u 1741
58 467 drobe Liesbet VV1 0:33:34 12.5 km/u 9300 alva
59 185 Bosmans Koen MSEN 0:33:39 12.4 km/u 1750 Jupi-Joggers
60 207 De Ridder Constant MV2 0:33:40 12.4 km/u 9300
61 187 Borremans Koen MSEN 0:33:41 12.4 km/u 1761 Jupi-Joggers
62 453 Stiens Joke VSEN 0:33:43 12.4 km/u 1670
63 102 Leclercq Bruno MV1 0:33:46 12.4 km/u 1190
64 91 Landerloo Jelne MMIN 0:33:48 12.4 km/u 1600 SK Leeuw
65 35 François Jochen MSEN 0:33:54 12.3 km/u 1653 Loopclub de Patrick
66 128 Ertem Ismail MSEN 0:33:57 12.3 km/u 1602
67 27 Croket Ronny MSEN 0:33:59 12.3 km/u 1770 Leeuwerik
68 85 Lacoutere Kevin MJUN 0:34:02 12.3 km/u 1600
69 84 Lacoutere Tanguy MKAD 0:34:04 12.3 km/u 1600
70 490 Eylenbosch Jarl MSEN 0:34:07 12.3 km/u 1600
71 129 Lanou Tom MSEN 0:34:10 12.2 km/u 1600 Depot
72 60 Vidal Frederic MV1 0:34:12 12.2 km/u 1150 Fedasil
73 59 Salim Cisse MSEN 0:34:15 12.2 km/u 1150 Fedasil
74 87 Boudrouss Nassim MMIN 0:34:21 12.2 km/u 1602
75 172 Bradt Else VV1 0:34:25 12.2 km/u 9320
76 206 Mertens Wilfried MV3 0:34:27 12.1 km/u 1600 Leeuwerik
77 75 Stiens Thibo MIN 0:34:30 12.1 km/u 1600 AFC Tubize
78 88 Van Lint Loic M-12 0:34:33 12.1 km/u 1703
79 97 Serre Ruben M-12 0:34:36 12.1 km/u 1740 DAC
80 170 Walravens Stef MSEN 0:34:40 12.1 km/u 1600
81 183 Meert Marcel MV2 0:34:44 12.0 km/u 1742
82 98 Laureys Tony MV2 0:34:52 12.0 km/u 1602
83 38 Van Eerdewegh Francis MV1 0:34:56 12.0 km/u 1755
84 37 vanstalle sandra VV1 0:34:59 12.0 km/u 1755
85 190 Vancauter Jelle MSEN 0:35:03 11.9 km/u 1703
86 169 Anwan Adie MSEN 0:35:06 11.9 km/u 1148
87 23 Hemels Jente MKAD 0:35:08 11.9 km/u 1602 SK Vlezenbeek
88 208 Pauwels Isaac MKAD 0:35:14 11.9 km/u 1602 SK Vlezenbeek
89 160 Fleurus Joke V-12 0:35:17 11.9 km/u 9506 DAC
90 134 Bosmans Rudi MV1 0:35:22 11.8 km/u 1755 ACP
91 414 Lombaert Lise VSEN 0:35:25 11.8 km/u 1703 Leeuwerik
92 12 Massagé Tonny MV2 0:35:47 11.7 km/u 1600 Leeuwerik
93 466 vanderborght ward M-12 0:35:52 11.7 km/u 9300
94 19 Close Patrick MV1 0:35:56 11.6 km/u 1602
95 469 Vincke Kevin MSEN 0:35:59 11.6 km/u 1600
96 106 Matthys Patrick MV1 0:36:03 11.6 km/u 1741 KWB Wambeek
97 111 Van De Genachte Tom MV1 0:36:05 11.6 km/u 1750 KWB Wambeek
98 76 Goral Christophe MSEN 0:36:28 11.5 km/u 1652 KSV Alsemberg
99 173 Massaer PIeter MSEN 0:36:30 11.5 km/u 1670 Runners Pepingen
100 429 massaer jozef MV3 0:36:32 11.4 km/u 1600 leeuwerik
101 118 Devuyst Bruno MV1 0:36:37 11.4 km/u 1703
102 58 Kaman Diaby MSEN 0:36:39 11.4 km/u 1130 Fedasil
103 154 De Waegemaeker Marc MV2 0:37:02 11.3 km/u 1600
104 153 Ots Patrick MV2 0:37:05 11.3 km/u 1600
105 179 Soumillion Maarten MSEN 0:37:10 11.3 km/u 1600 Leeuwerik
106 112 Eylenbosch Josephine VV2 0:37:12 11.2 km/u 1760 KWB Wambeek
107 472 Houtevelt Fabrice MSEN 0:37:15 11.2 km/u 1790
108 28 Ambuhl Vincent MV1 0:37:17 11.2 km/u 1120 Berlinus
109 168 Nevens Luc MV1 0:37:19 11.2 km/u 1600 Leeuwerik
110 499 Van der wilt Martin MV1 0:37:27 11.2 km/u 1602 Berlinus
111 440 Fobe Jean-Jacques MV1 0:37:29 11.2 km/u 1950 BERLINUS
112 201 Deridder Geert MV1 0:37:31 11.1 km/u 1440 Leeuwerik
113 72 Saccasyn Eric MV2 0:37:34 11.1 km/u 1750
114 34 Windey Gus MSEN 0:37:36 11.1 km/u 1653 Loopclub de Patrick
115 93 Van Audenhove An VV1 0:37:37 11.1 km/u 1701
116 69 Schifone Valentino MV2 0:37:39 11.1 km/u 1150 Fedasil
117 203 Vierendeel Rita VV2 0:37:41 11.1 km/u 9402 Leeuwerik
118 45 Leemans Johan MV1 0:37:46 11.1 km/u 1703 Pietclub
119 425 Bosmans Lesley VV1 0:37:47 11.1 km/u 1703 Brasserrun
120 62 Ega Serge MSEN 0:37:51 11.0 km/u 1150 Fedasil
121 166 Bernaerts Peter MV1 0:37:53 11.0 km/u 1600
122 92 De Kegel Bart MSEN 0:37:55 11.0 km/u 1600
123 7 Randisi Giovanni MV2 0:38:01 11.0 km/u 1602
124 444 Thorisaen Guido MV1 0:38:06 11.0 km/u 1703
125 24 Bardijn Danny MV2 0:38:11 10.9 km/u 1600
126 44 Vekeman Eric MV1 0:38:14 10.9 km/u 1703 Pietclub
127 204 Eylenbosch Jan MV3 0:38:21 10.9 km/u 1755
128 42 Aelmaen Yves MV2 0:38:26 10.9 km/u –
129 108 Desmecht Jelle MSEN 0:38:31 10.9 km/u 1651
130 51 Hallemans Jean-Pierre MV2 0:38:34 10.8 km/u 1570
131 193 Vanderheyden Liena VKAD 0:38:38 10.8 km/u 1502
132 202 Swelens Jessy VJUN 0:38:41 10.8 km/u 1440 BUL
133 125 Mertens Patricia VV1 0:38:47 10.8 km/u 1600 Leeuwerik
134 41 Van De Gucht Jurgen MSEN 0:38:48 10.8 km/u 1651
135 20 Vastesaeger Christophe MV1 0:38:50 10.8 km/u 1600
136 167 Bernaerts Ward M-12 0:38:52 10.8 km/u 1600
137 31 Nachtegaal Jonas mSEN 0:38:54 10.7 km/u 1674
138 146 Maes Philippe MSEN 0:38:55 10.7 km/u 1602
139 96 Theuwissen Claartje VV2 0:39:00 10.7 km/u 1600 Leeuwerik
140 164 Borremans Sofie VSEN 0:39:03 10.7 km/u 9300 KWB Wambeek
141 156 Walravens Yves MSEN 0:39:07 10.7 km/u 1700
142 82 Grypdonck Geert MSEN 0:39:18 10.6 km/u 1755
143 81 Sonck Henrie MSEN 0:39:24 10.6 km/u 1770 Liedekerke Jogging
144 17 Den Houdijker Willem MV3 0:39:30 10.6 km/u 1500 jog Beersel
145 411 Meurrens Katja VSEN 0:39:34 10.6 km/u 3210
146 53 Verdievel Fe VKAD 0:39:45 10.5 km/u 1701
147 49 Calloen Roger MV3 0:39:51 10.5 km/u 1600 Leeuwerik
148 478 HERCKENRATH MICHEL MV2 0:40:00 10.5 km/u 1602 LEEUWERIK
149 10 Herckenrath Chloé VSEN 0:40:02 10.4 km/u 1602 ENN
150 16 Permentier Patrick MV1 0:40:18 10.4 km/u 1600 Leeuwerik
151 104 Ruykens Siebe MSEN 0:40:27 10.3 km/u 1602
152 89 Van Lint Filip MV1 0:40:36 10.3 km/u 1703
153 191 Geerts Kjell MSEN 0:40:44 10.3 km/u 1600
154 163 Van Den Semrizer Leona VKAD 0:40:48 10.2 km/u 1600 Leeuwerik
155 177 Soumillion Stijn MSEN 0:40:51 10.2 km/u 1600 Leeuwerik
156 192 Geerts Sil MSEN 0:40:54 10.2 km/u 1600
157 486 Baut Jonas MMIN 0:40:57 10.2 km/u 1600 OEH
158 487 Baut Danny MV1 0:40:59 10.2 km/u 1600 Leeuwerik
159 493 Neef Anja VV1 0:41:01 10.2 km/u 1502
160 155 Fastenaekels Inge VSEN 0:41:03 10.2 km/u 1700
161 122 Vanhove Fien VSEN 0:41:05 10.2 km/u 1600
162 480 Yaranossian Nadia VV1 0:41:07 10.2 km/u 1070
163 30 De Saegher Ramond MV2 0:41:08 10.2 km/u 1602 Hoebelbike
164 55 Wouters Ivo MV2 0:41:10 10.2 km/u 1600 Leeuwerik
165 100 Vanmeulder Christel VV3 0:41:11 10.1 km/u 1602 Leeuwerik
166 95 Erzeel Bieke VSEN 0:41:13 10.1 km/u 1540 Leeuwerik
167 448 Januarius Nancy VV1 0:41:15 10.1 km/u 1600 Leeuwerik
168 188 Cocqereaux Charlot VV1 0:41:23 10.1 km/u 1750 KWB Wambeek
169 56 Vandroogenbroeck Patrick MV3 0:41:25 10.1 km/u 1600
170 184 Verfaillie Bruno MV1 0:41:28 10.1 km/u 3010
171 424 Michiels Philippe MV1 0:41:34 10.1 km/u 1703 Brasserrun
172 4 Guth David MSEN 0:41:36 10.0 km/u 1030
173 43 Neysens Jurgen MV1 0:41:44 10.0 km/u 1701 Pietclub
174 415 De Groote Vanessa VSEN 0:41:47 10.0 km/u 1600 Leeuwerik
175 196 De Vriendt Marc MV2 0:41:52 10.0 km/u 1440
176 482 Verbist Lien VSEN 0:42:13 9.94 km/u 1755
177 86 Ouindi Mohamed MV2 0:42:16 9.93 km/u 1653
178 413 LOUW HILDE VV1 0:42:21 9.91 km/u 1703 Leeuweriken
179 15 Speltincx Jurgen MV1 0:42:23 9.90 km/u 1602
180 442 ROGGHE LUC MV3 0:42:26 9.89 km/u 1600 LEEUWERIK
181 114 Constandt Tine VSEN 0:42:28 9.89 km/u 9051
182 113 Vande Velde Elke VSEN 0:42:30 9.88 km/u 2800
183 437 Vandael Joffrey MSEN 0:42:34 9.86 km/u 1700
184 136 Bredoux Philippe MV2 0:42:42 9.83 km/u 1602
185 171 Brisaert Marie Christine VV3 0:42:47 9.81 km/u 1670
186 426 walravens lydia VV3 0:42:57 9.77 km/u 1600 leeuwerik
187 46 Everaert Nel VSEN 0:43:21 9.68 km/u 9111
188 48 Basteleus Jean MV3 0:43:23 9.68 km/u 1500 O E H
189 8 Randisi Riccardo MSEN 0:43:23 9.68 km/u 1602
190 116 Cautaers Leen VSEN 0:43:27 9.66 km/u 9300 KWB Wambeek
191 176 De Wachter Rudi MV2 0:43:30 9.65 km/u 1741 KWB Wambeek
192 133 Berghmans Sieglinde VSEN 0:43:32 9.64 km/u 1652 Leeuwerik
193 178 Soumillion Dominique MV1 0:43:52 9.57 km/u 1600 Leeuwerik
194 121 Jacobs Amber VJUN 0:43:55 9.56 km/u 1750
195 445 Rodriguez Candido MV2 0:43:58 9.55 km/u 1070
196 107 Timmermans Marie-Jeanne VV1 0:44:02 9.53 km/u 1741 KWB Wambeek
197 430 smets sonja VV2 0:44:07 9.52 km/u 1600 leeuwerik
198 412 Van Vaerenbergh Katrien VSEN 0:44:10 9.50 km/u 1570
199 47 Behaeghel Cordini VSEN 0:44:12 9.50 km/u 1602
200 119 Vandergoten Lea VV2 0:44:14 9.49 km/u 1750
201 32 Vanca Campenhon Nick MSEN 0:44:16 9.48 km/u 1755
202 497 Vandenbossche Katleen VSEN 0:44:33 9.42 km/u 1790
203 498 Berteloot Bert MV1 0:44:35 9.42 km/u 1790
204 148 Verlinden Karin VV2 0:44:37 9.41 km/u 1600 Leeuwerik
205 61 Ammer Annemarie VSEN 0:44:49 9.37 km/u 1080 Fedasil
206 181 Michiels Greta VV2 0:44:55 9.35 km/u 1651 BVL
207 182 Loonen Wilm MV3 0:44:57 9.34 km/u 1650 BVL
208 479 Rodriguez Teo MKAD 0:45:00 9.33 km/u 1070
209 63 Al Najjar Mahmoud MSEN 0:45:02 9.32 km/u 1150 Fedasil
210 194 Herman Lynn VSEN 0:45:04 9.31 km/u 1602
211 195 Van Cutsem Stefanie VSEN 0:45:06 9.31 km/u 3001
212 39 De Koster Yoni MKAD 0:45:37 9.20 km/u 1700
213 70 Crokaert Agnes VV2 0:45:38 9.20 km/u 1703 Leeuwerik
214 422 Coeckelberghs Kim VSEN 0:45:46 9.17 km/u 1601
215 465 Bauwens Patty VV1 0:45:52 9.15 km/u 1750 ACP
216 197 Schets Liesbeth VSEN 0:46:07 9.10 km/u 1602
217 140 Rodriguez Santiago MV1 0:46:09 9.10 km/u 1070
218 141 Sabzalizadeh Faramarz MV2 0:46:16 9.07 km/u 1070
219 438 Kestemont Wouter MSEN 0:46:20 9.06 km/u 1600
220 137 Lindemans Ilse VV1 0:46:22 9.05 km/u 1602
221 199 Amahmaz Noconal VSEN 0:46:27 9.04 km/u 2800
222 175 Clottemans Ingrid VV1 0:46:46 8.98 km/u 1760 Run 4 Fun Roosdaal
223 492 Duson Evi VSEN 0:47:02 8.92 km/u 1600
224 410 Randisi Maria VV2 0:47:19 8.87 km/u 1602
225 149 Daelemans Francina VV2 0:47:27 8.85 km/u 1700 DAC
226 139 Vanderstraeten Ann VV1 0:47:29 8.84 km/u 1080 DAC Dilbeek
227 209 Vanbemeden Karin VV2 0:47:31 8.83 km/u 1600 Leeuwerik
228 205 Deschuyffeleer Inge VV1 0:47:35 8.82 km/u 1500
229 436 Van Nechel Sonia VV2 0:47:38 8.81 km/u 1600
230 435 Moriau Lut VV2 0:47:41 8.80 km/u 1600 Leeuwerik
231 40 Van Malder Cathy VV1 0:47:44 8.79 km/u 1700 DAC
232 22 Dujardin Agatha VSEN 0:47:46 8.79 km/u 1770
233 457 Beosier Monique VV3 0:47:49 8.78 km/u 1650 J.C. Leeuwerik
234 174 Ghyoot Anneleen VSEN 0:47:54 8.76 km/u 1740
235 456 Desmedt Daniel MV3 0:47:56 8.76 km/u 1650 J.C. Leeuwerik
236 3 Louvrier Hélène VSEN 0:48:26 8.67 km/u 7290
237 1 Louvrier Bernard MV3 0:48:29 8.66 km/u 1602
238 477 Massaer Lies VSEN 0:48:31 8.65 km/u 1502 Leeuwerik
239 463 Matelle Gill VV1 0:48:40 8.63 km/u 1602 ACP
240 443 Bardijn Jeanne VV3 0:48:44 8.61 km/u 1602 Leeuwerik
241 21 Van steenbergen Cindy VSEN 0:48:59 8.57 km/u 1500
242 476 Rodriguez Lana VJUN 0:49:23 8.50 km/u 1070
243 464 Machiels Eva VSEN 0:49:37 8.46 km/u 1750
244 124 De La Kethulle Laetitia VJUN 0:49:52 8.42 km/u 7861
245 459 De Donder Annie VV2 0:49:58 8.40 km/u 1600 Leeuwerik
246 460 Adriaens Yves MV2 0:50:00 8.4 km/u 1600 Leeuwerik
247 138 De Geyter Linda VV2 0:51:48 8.10 km/u 1700 DAC
248 101 Francoise Lihoir VV2 0:52:18 8.03 km/u 1190
249 103 Livin Liesbeth VSEN 0:53:31 7.84 km/u 1602
250 105 Rosseel Sara VSEN 0:53:33 7.84 km/u 1501
251 132 Vanbiervliet Werner MV3 0:53:54 7.79 km/u 9402 VIIH
252 2 Tombelle Adelaide VSEN 0:54:03 7.77 km/u 1040
253 162 Bruyninckx Ingrid VV2 0:55:22 7.58 km/u 1703 GA Lopers
254 143 De Paepe Hilde VV2 0:55:24 7.58 km/u 1700
255 491 Boon Sarah VSEN 0:56:48 7.39 km/u 1500
256 473 Laus Claudia VV1 0:57:06 7.35 km/u 1600 Leeuwerik
257 452 De Bosscher Marc MV2 0:59:18 7.08 km/u 1600 Leeuwerik
258 451 Vandenbosch Rolanda VV1 0:59:23 7.07 km/u 1600 Leeuwerik
259 428 Pauwels Daniel MV2 0:59:25 7.06 km/u 1602 Leeuwerik
260 441 VAN DIEST MARLEEN VV2 0:59:29 7.06 km/u 1600 LEEUWERIK
261 26 Huygh Bart MV3 0:59:56 7.00 km/u 1602 Leeuwerik
262 180 Vandenbossche Kristel VSEN 1:00:55 6.89 km/u 1730
263 152 Rampelberg Cindy VSEN 1:01:03 6.87 km/u 1653 OEH
264 439 Doyen Jessica VSEN 1:02:50 6.68 km/u 1600
265 198 Haverhlas Debbie VSEN 1:03:26 6.62 km/u 2100
266 29 De Saegher Annelore VSEN 1:04:37 6.49 km/u 1602 Hoebelbike

%d bloggers liken dit: